Time;durP1;ratioP1;P1;durP2;ratioP2;P2;SDS_P1;SDS_P2;PMS_P1;PMS_P2;Temp;Humidity;BMP_temperature;BMP_pressure;BME280_temperature;BME280_humidity;BME280_pressure;Samples;Min_cycle;Max_cycle;Signal;HPM_P1;HPM_P2
2024/01/28 00:00:03;;;;;;;13.90;10.80;;;;;;;1.26;100.00;101165.25;87249;270;22861;-71
2024/01/28 00:02:12;;;;;;;14.40;10.90;;;;;;;1.23;100.00;101166.69;87332;277;25184;-70
2024/01/28 00:04:14;;;;;;;14.00;10.10;;;;;;;1.19;100.00;101161.59;87094;273;136766;-70
2024/01/28 00:06:16;;;;;;;14.60;11.70;;;;;;;1.16;100.00;101165.80;87484;266;22533;-67
2024/01/28 00:08:18;;;;;;;16.00;11.80;;;;;;;1.14;100.00;101170.50;87214;278;136785;-70
2024/01/28 00:10:21;;;;;;;12.50;10.30;;;;;;;1.18;100.00;101170.02;87311;278;22571;-71
2024/01/28 00:12:23;;;;;;;12.60;9.80;;;;;;;1.27;100.00;101168.16;87329;271;138351;-69
2024/01/28 00:14:26;;;;;;;13.30;10.40;;;;;;;1.30;100.00;101170.77;87250;271;22613;-69
2024/01/28 00:16:27;;;;;;;13.40;10.60;;;;;;;1.29;100.00;101167.34;87075;268;139048;-70
2024/01/28 00:18:30;;;;;;;11.70;10.20;;;;;;;1.27;100.00;101177.95;87315;267;25207;-69
2024/01/28 00:20:32;;;;;;;15.30;10.80;;;;;;;1.24;100.00;101177.50;87343;266;136361;-70
2024/01/28 00:22:33;;;;;;;16.10;12.30;;;;;;;1.16;100.00;101178.55;87334;263;23883;-69
2024/01/28 00:24:35;;;;;;;12.90;9.80;;;;;;;1.10;100.00;101180.00;87200;271;137991;-68
2024/01/28 00:26:39;;;;;;;11.40;9.20;;;;;;;1.14;100.00;101181.88;87197;271;22586;-67
2024/01/28 00:28:41;;;;;;;16.00;12.00;;;;;;;1.20;100.00;101185.31;87074;276;137627;-69
2024/01/28 00:30:46;;;;;;;13.70;10.80;;;;;;;1.25;100.00;101182.84;87122;269;24069;-72
2024/01/28 00:32:48;;;;;;;14.80;12.10;;;;;;;1.27;100.00;101187.28;87225;279;136752;-69
2024/01/28 00:34:50;;;;;;;14.60;12.20;;;;;;;1.21;100.00;101186.80;87574;271;25124;-70
2024/01/28 00:36:53;;;;;;;14.40;11.30;;;;;;;1.15;100.00;101186.51;87166;278;136503;-69
2024/01/28 00:38:55;;;;;;;15.80;11.50;;;;;;;1.10;100.00;101188.61;87339;271;22567;-68
2024/01/28 00:40:58;;;;;;;14.50;9.90;;;;;;;1.12;100.00;101191.97;87285;270;137107;-69
2024/01/28 00:43:02;;;;;;;14.50;11.00;;;;;;;1.14;100.00;101188.16;87321;263;22582;-69
2024/01/28 00:45:05;;;;;;;14.30;11.00;;;;;;;1.17;100.00;101189.72;87304;271;137078;-69
2024/01/28 00:47:06;;;;;;;12.50;10.50;;;;;;;1.20;100.00;101196.36;87190;263;25342;-69
2024/01/28 00:49:08;;;;;;;13.50;10.50;;;;;;;1.18;100.00;101197.55;87219;274;137708;-67
2024/01/28 00:51:10;;;;;;;15.50;10.70;;;;;;;1.12;100.00;101197.55;87368;267;22641;-68
2024/01/28 00:53:12;;;;;;;12.60;10.20;;;;;;;1.08;100.00;101198.91;87323;267;136395;-68
2024/01/28 00:55:14;;;;;;;15.70;11.20;;;;;;;1.06;100.00;101201.52;87382;267;25147;-70
2024/01/28 00:59:39;;;;;;;14.40;11.10;;;;;;;0.95;100.00;101200.67;85189;304;601838;-70
2024/01/28 01:01:41;;;;;;;15.30;11.60;;;;;;;0.97;100.00;101202.48;86224;287;137452;-70
2024/01/28 01:03:43;;;;;;;13.60;10.80;;;;;;;1.05;100.00;101204.39;86242;291;22609;-69
2024/01/28 01:05:46;;;;;;;12.40;10.40;;;;;;;1.05;100.00;101204.19;86019;287;137347;-71
2024/01/28 01:07:47;;;;;;;15.20;12.00;;;;;;;1.01;100.00;101207.13;86095;291;22861;-69
2024/01/28 01:09:49;;;;;;;17.40;12.10;;;;;;;0.98;100.00;101204.52;86079;280;135759;-68
2024/01/28 01:11:51;;;;;;;15.80;11.50;;;;;;;1.02;100.00;101210.38;86013;288;25129;-71
2024/01/28 01:13:55;;;;;;;15.10;10.30;;;;;;;1.09;100.00;101217.77;85817;287;572293;-69
2024/01/28 01:15:58;;;;;;;15.50;11.60;;;;;;;1.13;100.00;101223.92;86241;286;22595;-69
2024/01/28 01:17:59;;;;;;;13.50;10.00;;;;;;;1.13;100.00;101224.98;86550;286;137313;-69
2024/01/28 01:20:02;;;;;;;19.10;13.00;;;;;;;1.13;100.00;101233.21;86593;286;25227;-68
2024/01/28 01:22:03;;;;;;;14.50;11.60;;;;;;;1.05;100.00;101234.98;86645;286;25129;-68
2024/01/28 01:24:06;;;;;;;16.60;12.80;;;;;;;0.96;100.00;101234.38;86475;274;136544;-67
2024/01/28 01:26:09;;;;;;;14.70;11.30;;;;;;;0.89;100.00;101239.20;86700;286;25108;-69
2024/01/28 01:28:11;;;;;;;16.70;11.60;;;;;;;0.92;100.00;101237.11;86518;283;137024;-69
2024/01/28 01:30:13;;;;;;;17.70;13.20;;;;;;;0.98;100.00;101232.30;86711;277;22565;-69
2024/01/28 01:32:16;;;;;;;14.60;11.60;;;;;;;1.02;100.00;101234.48;86460;286;138317;-69
2024/01/28 01:34:17;;;;;;;18.90;12.60;;;;;;;1.06;100.00;101237.36;86950;274;25252;-68
2024/01/28 01:36:19;;;;;;;18.50;11.90;;;;;;;1.03;100.00;101237.77;87378;274;136394;-71
2024/01/28 01:38:22;;;;;;;17.40;12.70;;;;;;;0.97;100.00;101238.71;86985;274;25246;-70
2024/01/28 01:40:24;;;;;;;17.70;13.20;;;;;;;0.92;100.00;101243.23;86857;274;136103;-71
2024/01/28 01:42:27;;;;;;;15.60;12.40;;;;;;;0.87;100.00;101247.73;87001;275;22612;-69
2024/01/28 01:44:29;;;;;;;17.30;13.50;;;;;;;0.95;100.00;101246.86;86705;275;136700;-68
2024/01/28 01:46:31;;;;;;;17.80;13.20;;;;;;;1.07;100.00;101250.80;86793;271;24124;-68
2024/01/28 01:48:33;;;;;;;16.20;12.40;;;;;;;1.14;100.00;101252.95;86712;279;136929;-69
2024/01/28 01:50:36;;;;;;;18.30;12.50;;;;;;;1.17;100.00;101260.80;86858;280;22549;-67
2024/01/28 01:52:43;;;;;;;17.10;12.10;;;;;;;1.14;100.00;101259.25;87268;265;136099;-68
2024/01/28 01:54:47;;;;;;;18.70;12.80;;;;;;;1.06;100.00;101266.77;87334;269;25178;-70
2024/01/28 01:56:49;;;;;;;19.70;13.20;;;;;;;0.99;100.00;101265.71;87262;273;136056;-69
2024/01/28 01:58:53;;;;;;;20.50;13.40;;;;;;;1.01;100.00;101269.22;87393;266;24606;-70
2024/01/28 02:00:55;;;;;;;18.00;12.30;;;;;;;1.07;100.00;101271.80;87123;266;136692;-70
2024/01/28 02:02:57;;;;;;;17.80;12.50;;;;;;;1.10;100.00;101271.92;87222;270;25124;-71
2024/01/28 02:04:59;;;;;;;20.30;16.00;;;;;;;1.10;100.00;101276.30;87165;274;136529;-68
2024/01/28 02:07:01;;;;;;;18.80;13.00;;;;;;;1.05;100.00;101276.98;87263;270;24945;-69
2024/01/28 02:09:05;;;;;;;20.30;15.40;;;;;;;0.99;100.00;101280.07;87267;278;136082;-71
2024/01/28 02:11:07;;;;;;;19.50;14.60;;;;;;;0.92;100.00;101279.80;87362;271;22629;-69
2024/01/28 02:13:09;;;;;;;19.50;13.00;;;;;;;0.92;100.00;101281.73;87264;267;136400;-69
2024/01/28 02:15:11;;;;;;;18.70;13.00;;;;;;;0.97;100.00;101288.71;87308;271;22736;-70
2024/01/28 02:17:13;;;;;;;18.00;13.20;;;;;;;1.02;100.00;101285.79;87118;267;137566;-69
2024/01/28 02:19:16;;;;;;;19.30;14.40;;;;;;;1.04;100.00;101286.90;87325;278;22557;-70
2024/01/28 02:21:19;;;;;;;19.00;11.90;;;;;;;1.03;100.00;101290.64;87336;267;140231;-69
2024/01/28 02:23:21;;;;;;;17.50;12.80;;;;;;;1.00;100.00;101293.98;87281;275;22572;-69
2024/01/28 02:25:23;;;;;;;21.90;13.60;;;;;;;0.95;100.00;101293.04;87231;275;136249;-70
2024/01/28 02:27:25;;;;;;;22.60;15.70;;;;;;;0.96;100.00;101298.27;87382;274;22806;-69
2024/01/28 02:29:27;;;;;;;17.60;12.20;;;;;;;1.02;100.00;101299.46;87166;271;137974;-70
2024/01/28 02:31:29;;;;;;;20.90;14.10;;;;;;;1.06;100.00;101302.34;87321;271;24032;-69
2024/01/28 02:33:31;;;;;;;21.20;14.10;;;;;;;1.09;100.00;101307.05;87263;271;136513;-68
2024/01/28 02:35:33;;;;;;;21.70;15.10;;;;;;;1.04;100.00;101305.83;87331;271;22588;-67
2024/01/28 02:37:35;;;;;;;22.60;15.40;;;;;;;0.90;100.00;101304.59;87246;279;137426;-69
2024/01/28 02:39:38;;;;;;;21.20;14.70;;;;;;;0.85;100.00;101303.88;87234;275;26249;-69
2024/01/28 02:41:40;;;;;;;19.70;14.40;;;;;;;0.89;100.00;101303.26;87206;271;136927;-68
2024/01/28 02:43:42;;;;;;;29.80;16.60;;;;;;;0.94;100.00;101307.98;87240;267;25223;-66
2024/01/28 02:45:43;;;;;;;21.40;15.50;;;;;;;0.96;100.00;101309.23;87165;271;136391;-70
2024/01/28 02:47:45;;;;;;;23.00;16.80;;;;;;;0.92;100.00;101314.25;87362;267;22571;-70
2024/01/28 02:49:47;;;;;;;20.70;15.70;;;;;;;0.90;100.00;101309.30;87258;271;136352;-68
2024/01/28 02:51:53;;;;;;;21.30;15.90;;;;;;;0.89;100.00;101315.02;87302;272;25217;-69
2024/01/28 02:53:58;;;;;;;22.40;15.40;;;;;;;0.89;100.00;101314.27;87447;267;137465;-67
2024/01/28 02:56:00;;;;;;;25.20;16.00;;;;;;;0.99;100.00;101318.00;87455;279;23893;-66
2024/01/28 02:58:04;;;;;;;22.70;15.90;;;;;;;1.11;100.00;101324.95;87485;278;22559;-68
2024/01/28 03:00:07;;;;;;;23.50;15.50;;;;;;;1.19;100.00;101327.91;87310;278;136962;-70
2024/01/28 03:02:10;;;;;;;23.00;15.50;;;;;;;1.19;100.00;101328.61;87364;274;22560;-69
2024/01/28 03:04:11;;;;;;;25.90;17.50;;;;;;;1.13;100.00;101331.76;87147;269;135999;-69
2024/01/28 03:06:14;;;;;;;22.80;15.70;;;;;;;1.07;100.00;101330.79;87480;279;22570;-68
2024/01/28 03:08:16;;;;;;;21.70;15.40;;;;;;;1.03;100.00;101334.04;87182;272;136780;-69
2024/01/28 03:10:18;;;;;;;23.50;15.00;;;;;;;1.05;100.00;101334.42;87288;271;25246;-69
2024/01/28 03:12:19;;;;;;;20.70;14.80;;;;;;;1.09;100.00;101339.91;87157;271;137056;-69
2024/01/28 03:14:21;;;;;;;24.50;17.80;;;;;;;1.12;100.00;101343.77;87364;271;22585;-68
2024/01/28 03:16:23;;;;;;;21.90;15.00;;;;;;;1.14;100.00;101349.59;87260;267;136681;-68
2024/01/28 03:18:27;;;;;;;23.10;15.40;;;;;;;1.10;100.00;101350.70;87369;278;22602;-70
2024/01/28 03:20:29;;;;;;;26.10;18.40;;;;;;;1.06;100.00;101349.73;87267;274;137557;-68
2024/01/28 03:22:31;;;;;;;25.40;15.70;;;;;;;1.03;100.00;101352.45;87372;266;25235;-68
2024/01/28 03:24:33;;;;;;;29.00;18.70;;;;;;;1.09;100.00;101357.59;87211;267;139477;-68
2024/01/28 03:26:35;;;;;;;21.90;15.50;;;;;;;1.19;100.00;101362.53;87168;271;22609;-68
2024/01/28 03:28:37;;;;;;;24.00;17.10;;;;;;;1.26;100.00;101360.55;87186;271;137035;-68
2024/01/28 03:30:39;;;;;;;21.30;14.40;;;;;;;1.26;100.00;101365.96;87302;278;23469;-69
2024/01/28 03:32:41;;;;;;;23.20;16.00;;;;;;;1.20;100.00;101370.55;87129;271;136933;-69
2024/01/28 03:34:44;;;;;;;22.20;16.40;;;;;;;1.12;100.00;101368.98;87406;278;23215;-69
2024/01/28 03:36:47;;;;;;;22.90;15.60;;;;;;;1.06;100.00;101369.37;87234;271;136294;-72
2024/01/28 03:38:48;;;;;;;26.20;17.70;;;;;;;1.05;100.00;101374.89;87273;271;25187;-68
2024/01/28 03:40:50;;;;;;;23.80;16.40;;;;;;;1.11;100.00;101378.30;87114;278;136736;-69
2024/01/28 03:42:52;;;;;;;24.90;17.70;;;;;;;1.15;100.00;101380.46;87253;278;25082;-68
2024/01/28 03:44:53;;;;;;;23.00;17.00;;;;;;;1.17;100.00;101384.56;87164;274;136867;-68
2024/01/28 03:46:56;;;;;;;24.60;17.60;;;;;;;1.16;100.00;101382.50;87411;274;22572;-68
2024/01/28 03:48:57;;;;;;;24.80;17.30;;;;;;;1.10;100.00;101386.95;87215;278;136270;-69
2024/01/28 03:50:59;;;;;;;22.60;16.50;;;;;;;1.03;100.00;101392.14;87206;279;22667;-73
2024/01/28 03:53:02;;;;;;;22.80;16.80;;;;;;;0.99;100.00;101392.77;87121;271;136397;-72
2024/01/28 03:55:05;;;;;;;21.20;15.80;;;;;;;0.96;100.00;101391.21;87279;279;25292;-72
2024/01/28 03:57:07;;;;;;;24.10;15.80;;;;;;;0.95;100.00;101396.13;87334;279;140297;-71
2024/01/28 03:59:09;;;;;;;25.20;17.40;;;;;;;0.92;100.00;101400.71;87312;279;25143;-73
2024/01/28 04:01:11;;;;;;;29.60;18.30;;;;;;;0.89;100.00;101401.95;87117;265;137114;-74
2024/01/28 04:03:13;;;;;;;27.20;17.70;;;;;;;0.87;100.00;101406.48;87343;279;22605;-73
2024/01/28 04:05:16;;;;;;;25.40;17.20;;;;;;;0.88;100.00;101409.39;87312;274;137182;-71
2024/01/28 04:07:17;;;;;;;26.40;18.10;;;;;;;0.88;100.00;101412.69;87420;271;25098;-72
2024/01/28 04:09:19;;;;;;;22.60;16.10;;;;;;;0.85;100.00;101416.44;87209;267;137621;-72
2024/01/28 04:11:25;;;;;;;26.80;16.70;;;;;;;0.81;100.00;101417.93;87344;279;25236;-70
2024/01/28 04:13:27;;;;;;;27.20;17.80;;;;;;;0.82;100.00;101425.55;87233;275;136747;-69
2024/01/28 04:15:29;;;;;;;24.90;17.20;;;;;;;0.89;100.00;101425.27;87355;279;24172;-72
2024/01/28 04:17:31;;;;;;;22.60;16.20;;;;;;;0.90;100.00;101433.39;87180;279;138349;-70
2024/01/28 04:19:33;;;;;;;28.00;18.20;;;;;;;0.89;100.00;101436.27;87375;275;22562;-73
2024/01/28 04:21:35;;;;;;;29.30;18.10;;;;;;;0.90;100.00;101435.18;87115;272;137160;-72
2024/01/28 04:23:39;;;;;;;26.40;17.50;;;;;;;0.91;100.00;101441.41;87370;271;25079;-69
2024/01/28 04:25:41;;;;;;;27.00;17.70;;;;;;;0.88;100.00;101438.63;87312;270;136600;-70
2024/01/28 04:27:42;;;;;;;28.60;18.00;;;;;;;0.85;100.00;101444.40;87402;269;23956;-71
2024/01/28 04:29:44;;;;;;;27.20;19.40;;;;;;;0.82;100.00;101446.16;87288;269;140538;-71
2024/01/28 04:31:46;;;;;;;28.30;18.40;;;;;;;0.81;100.00;101449.95;87323;266;22637;-68
2024/01/28 04:33:48;;;;;;;31.80;20.50;;;;;;;0.87;100.00;101453.18;87267;278;138798;-69
2024/01/28 04:35:51;;;;;;;25.70;18.00;;;;;;;0.99;100.00;101453.84;87428;267;22568;-70
2024/01/28 04:37:53;;;;;;;25.90;18.00;;;;;;;1.08;100.00;101456.22;87215;278;137059;-70
2024/01/28 04:39:54;;;;;;;28.60;18.40;;;;;;;1.14;100.00;101464.39;87255;270;22626;-70
2024/01/28 04:41:56;;;;;;;26.90;18.70;;;;;;;1.11;100.00;101466.58;87223;271;136559;-70
2024/01/28 04:43:58;;;;;;;25.40;16.90;;;;;;;1.07;100.00;101468.73;87279;267;26210;-70
2024/01/28 04:46:00;;;;;;;29.90;18.40;;;;;;;1.02;100.00;101465.36;87207;271;136168;-69
2024/01/28 04:48:01;;;;;;;23.00;15.70;;;;;;;1.03;100.00;101467.59;87367;271;26262;-69
2024/01/28 04:50:05;;;;;;;26.90;18.10;;;;;;;1.10;100.00;101470.64;87368;267;22540;-69
2024/01/28 04:52:07;;;;;;;25.70;17.70;;;;;;;1.13;100.00;101476.05;87346;267;137403;-70
2024/01/28 04:54:08;;;;;;;27.40;18.30;;;;;;;1.13;100.00;101477.41;87349;263;26246;-69
2024/01/28 04:56:11;;;;;;;27.20;18.50;;;;;;;1.10;100.00;101476.96;87226;267;136742;-68
2024/01/28 04:58:13;;;;;;;24.80;17.20;;;;;;;1.08;100.00;101476.58;87547;261;24068;-68
2024/01/28 05:00:17;;;;;;;27.10;18.10;;;;;;;1.08;100.00;101476.18;87169;274;136781;-69
2024/01/28 05:02:19;;;;;;;29.70;20.00;;;;;;;1.07;100.00;101479.42;87514;278;22639;-72
2024/01/28 05:04:21;;;;;;;32.40;19.50;;;;;;;1.06;100.00;101479.31;87193;274;136727;-69
2024/01/28 05:06:23;;;;;;;26.80;17.90;;;;;;;1.15;100.00;101480.99;87402;271;25133;-68
2024/01/28 05:08:25;;;;;;;29.70;18.50;;;;;;;1.27;100.00;101478.95;87257;271;137430;-68
2024/01/28 05:10:29;;;;;;;29.90;18.60;;;;;;;1.33;100.00;101479.84;87409;273;22551;-69
2024/01/28 05:12:31;;;;;;;31.40;20.10;;;;;;;1.31;100.00;101485.56;87253;269;136599;-70
2024/01/28 05:14:34;;;;;;;29.80;19.10;;;;;;;1.25;100.00;101487.38;87311;271;24087;-75
2024/01/28 05:16:37;;;;;;;23.40;16.40;;;;;;;1.23;100.00;101495.88;87253;278;136396;-72
2024/01/28 05:18:39;;;;;;;24.70;16.80;;;;;;;1.24;100.00;101496.36;87303;278;24608;-70
2024/01/28 05:20:41;;;;;;;25.70;18.20;;;;;;;1.22;100.00;101498.74;87210;271;137479;-70
2024/01/28 05:22:43;;;;;;;24.70;17.50;;;;;;;1.27;100.00;101500.71;87279;271;22591;-72
2024/01/28 05:24:47;;;;;;;30.10;18.20;;;;;;;1.31;100.00;101504.48;87156;271;138644;-69
2024/01/28 05:26:49;;;;;;;25.70;17.60;;;;;;;1.33;100.00;101510.44;87451;271;23856;-79
2024/01/28 05:28:51;;;;;;;26.40;18.80;;;;;;;1.31;100.00;101510.94;87178;278;136734;-69
2024/01/28 05:30:55;;;;;;;24.30;18.20;;;;;;;1.22;100.00;101520.80;87269;267;25038;-69
2024/01/28 05:32:57;;;;;;;25.60;18.00;;;;;;;1.12;100.00;101527.54;87337;275;137850;-69
2024/01/28 05:35:03;;;;;;;27.00;18.70;;;;;;;1.09;100.00;101528.98;87174;272;26310;-70
2024/01/28 05:37:05;;;;;;;25.90;18.20;;;;;;;1.18;100.00;101531.25;87282;278;136713;-71
2024/01/28 05:39:07;;;;;;;25.20;16.80;;;;;;;1.27;100.00;101536.77;87197;267;22589;-71
2024/01/28 05:41:09;;;;;;;28.60;19.40;;;;;;;1.26;100.00;101536.48;87111;271;136521;-73
2024/01/28 05:43:11;;;;;;;27.00;18.20;;;;;;;1.22;100.00;101542.86;87307;269;22677;-72
2024/01/28 05:45:13;;;;;;;25.90;18.70;;;;;;;1.19;100.00;101539.20;87081;269;137834;-72
2024/01/28 05:47:15;;;;;;;24.00;17.00;;;;;;;1.15;100.00;101546.27;87843;267;25256;-71
2024/01/28 05:49:17;;;;;;;26.70;17.00;;;;;;;1.20;100.00;101551.55;87210;267;136677;-70
2024/01/28 05:51:20;;;;;;;26.80;18.80;;;;;;;1.28;100.00;101550.22;87275;271;22575;-72
2024/01/28 05:53:24;;;;;;;26.00;18.20;;;;;;;1.33;100.00;101553.22;87308;267;137242;-72
2024/01/28 05:55:26;;;;;;;26.30;18.30;;;;;;;1.32;100.00;101560.08;87611;271;23740;-65
2024/01/28 05:57:27;;;;;;;26.60;17.10;;;;;;;1.29;100.00;101563.65;87434;278;136304;-70
2024/01/28 05:59:30;;;;;;;30.80;20.10;;;;;;;1.24;100.00;101565.50;87281;269;24014;-68
2024/01/28 06:01:32;;;;;;;27.70;18.50;;;;;;;1.21;100.00;101570.23;87196;269;138308;-67
2024/01/28 06:03:36;;;;;;;28.40;17.50;;;;;;;1.20;100.00;101571.74;87201;278;22570;-65
2024/01/28 06:05:39;;;;;;;25.20;17.20;;;;;;;1.21;100.00;101574.27;87315;274;141097;-68
2024/01/28 06:07:40;;;;;;;25.40;17.80;;;;;;;1.22;100.00;101577.92;87236;267;25093;-65
2024/01/28 06:09:42;;;;;;;30.40;19.00;;;;;;;1.20;100.00;101574.20;87077;270;136998;-67
2024/01/28 06:11:44;;;;;;;28.20;19.40;;;;;;;1.17;100.00;101581.19;87060;272;24837;-65
2024/01/28 06:13:46;;;;;;;32.50;22.10;;;;;;;1.11;100.00;101581.75;87372;275;136497;-66
2024/01/28 06:15:48;;;;;;;28.50;19.00;;;;;;;1.05;100.00;101582.67;87171;271;23009;-66
2024/01/28 06:17:50;;;;;;;30.30;19.10;;;;;;;1.05;100.00;101590.01;87141;277;137158;-67
2024/01/28 06:19:52;;;;;;;25.30;16.40;;;;;;;1.15;100.00;101591.84;87265;269;22643;-65
2024/01/28 06:21:55;;;;;;;31.40;19.40;;;;;;;1.19;100.00;101594.39;87410;267;136829;-68
2024/01/28 06:23:56;;;;;;;26.00;18.00;;;;;;;1.17;100.00;101602.40;87189;271;27205;-66
2024/01/28 06:25:58;;;;;;;25.70;17.60;;;;;;;1.09;100.00;101609.16;87219;270;137977;-65
2024/01/28 06:28:00;;;;;;;26.20;18.60;;;;;;;1.05;100.00;101605.76;87183;273;22643;-67
2024/01/28 06:30:02;;;;;;;28.60;18.30;;;;;;;1.05;100.00;101610.53;87100;278;137765;-67
2024/01/28 06:32:05;;;;;;;27.50;19.40;;;;;;;1.13;100.00;101614.20;86982;268;137353;-67
2024/01/28 06:34:07;;;;;;;29.40;19.30;;;;;;;1.28;100.00;101618.16;87252;262;24759;-70
2024/01/28 06:36:09;;;;;;;26.50;18.60;;;;;;;1.38;100.00;101622.77;88235;269;136840;-67
2024/01/28 06:38:10;;;;;;;26.90;18.80;;;;;;;1.40;100.00;101622.64;86999;279;22604;-65
2024/01/28 06:40:12;;;;;;;26.10;18.50;;;;;;;1.40;100.00;101624.10;87119;274;136642;-65
2024/01/28 06:42:14;;;;;;;28.80;19.40;;;;;;;1.40;100.00;101628.08;87364;271;22567;-66
2024/01/28 06:44:16;;;;;;;28.70;19.00;;;;;;;1.43;100.00;101628.60;86997;279;136630;-66
2024/01/28 06:46:19;;;;;;;27.00;18.00;;;;;;;1.46;100.00;101632.27;87202;275;25550;-65
2024/01/28 06:48:21;;;;;;;26.80;18.00;;;;;;;1.55;100.00;101631.54;87093;274;137186;-66
2024/01/28 06:50:23;;;;;;;24.40;15.70;;;;;;;1.67;100.00;101634.98;87363;271;25146;-65
2024/01/28 06:52:25;;;;;;;23.10;17.50;;;;;;;1.72;100.00;101631.11;87266;278;136725;-66
2024/01/28 06:54:29;;;;;;;25.60;17.80;;;;;;;1.63;100.00;101639.20;87350;271;22565;-66
2024/01/28 06:56:31;;;;;;;23.10;17.40;;;;;;;1.50;100.00;101639.71;87061;267;136558;-65
2024/01/28 06:58:32;;;;;;;26.90;18.20;;;;;;;1.40;100.00;101644.94;87271;278;25201;-66
2024/01/28 07:00:34;;;;;;;22.80;14.60;;;;;;;1.33;100.00;101647.98;87072;267;136750;-66
2024/01/28 07:02:37;;;;;;;22.50;16.50;;;;;;;1.35;100.00;101651.83;87150;279;24111;-65
2024/01/28 07:04:39;;;;;;;24.30;17.30;;;;;;;1.46;100.00;101655.41;87430;271;137177;-64
2024/01/28 07:06:41;;;;;;;29.50;20.10;;;;;;;1.51;100.00;101654.38;87517;274;25111;-64
2024/01/28 07:08:44;;;;;;;25.30;18.90;;;;;;;1.53;100.00;101654.79;87084;277;137913;-71
2024/01/28 07:10:46;;;;;;;27.50;18.80;;;;;;;1.53;100.00;101660.02;87374;274;22654;-69
2024/01/28 07:12:48;;;;;;;26.40;18.70;;;;;;;1.49;100.00;101659.20;87203;267;136832;-69
2024/01/28 07:14:50;;;;;;;26.40;20.50;;;;;;;1.44;100.00;101664.99;87150;273;25172;-71
2024/01/28 07:16:52;;;;;;;25.70;19.00;;;;;;;1.40;100.00;101664.53;87153;278;136557;-72
2024/01/28 07:18:53;;;;;;;28.20;18.40;;;;;;;1.38;100.00;101668.85;87336;271;23416;-71
2024/01/28 07:20:56;;;;;;;28.50;18.40;;;;;;;1.43;100.00;101674.30;87209;276;137300;-69
2024/01/28 07:22:58;;;;;;;27.90;19.10;;;;;;;1.52;100.00;101677.95;87413;267;23025;-69
2024/01/28 07:25:01;;;;;;;27.30;19.50;;;;;;;1.58;100.00;101681.77;87204;278;137302;-69
2024/01/28 07:27:03;;;;;;;27.30;18.40;;;;;;;1.60;100.00;101683.22;87383;271;22600;-69
2024/01/28 07:29:05;;;;;;;29.00;20.60;;;;;;;1.57;100.00;101685.89;87171;271;136714;-70
2024/01/28 07:31:07;;;;;;;29.60;19.50;;;;;;;1.54;100.00;101682.20;87139;268;22570;-68
2024/01/28 07:33:10;;;;;;;28.70;20.80;;;;;;;1.53;100.00;101685.27;87346;267;136761;-71
2024/01/28 07:35:12;;;;;;;27.20;18.70;;;;;;;1.50;100.00;101688.05;87544;267;22811;-69
2024/01/28 07:37:14;;;;;;;24.90;17.60;;;;;;;1.57;100.00;101691.98;87375;271;138387;-69
2024/01/28 07:39:16;;;;;;;25.10;17.90;;;;;;;1.62;100.00;101695.39;87570;271;25153;-73
2024/01/28 07:41:18;;;;;;;22.40;16.60;;;;;;;1.54;100.00;101697.08;87322;279;137004;-68
2024/01/28 07:43:23;;;;;;;25.00;18.50;;;;;;;1.49;100.00;101696.73;87325;271;23981;-68
2024/01/28 07:45:25;;;;;;;30.50;19.80;;;;;;;1.40;100.00;101698.27;87172;271;136389;-67
2024/01/28 07:47:27;;;;;;;34.00;21.50;;;;;;;1.31;100.00;101703.05;87350;275;22590;-73
2024/01/28 07:49:29;;;;;;;26.30;20.70;;;;;;;1.35;100.00;101701.61;87262;275;137237;-72
2024/01/28 07:51:32;;;;;;;22.70;17.10;;;;;;;1.47;100.00;101703.86;87569;271;25255;-73
2024/01/28 07:53:34;;;;;;;27.40;18.60;;;;;;;1.52;100.00;101704.44;87220;267;137023;-72
2024/01/28 07:55:36;;;;;;;28.30;18.80;;;;;;;1.47;100.00;101711.02;87087;276;24029;-69
2024/01/28 07:57:38;;;;;;;28.90;19.20;;;;;;;1.40;100.00;101719.17;87064;267;136252;-68
2024/01/28 07:59:40;;;;;;;27.50;19.90;;;;;;;1.34;100.00;101720.73;87216;272;25194;-69
2024/01/28 08:01:41;;;;;;;26.30;18.40;;;;;;;1.34;100.00;101721.77;86850;280;136087;-68
2024/01/28 08:03:44;;;;;;;27.40;18.60;;;;;;;1.41;100.00;101722.29;87241;278;22667;-68
2024/01/28 08:05:47;;;;;;;27.70;18.30;;;;;;;1.52;100.00;101727.20;87183;271;137291;-70
2024/01/28 08:07:49;;;;;;;25.40;19.10;;;;;;;1.59;100.00;101732.16;87638;267;24052;-70
2024/01/28 08:09:51;;;;;;;31.40;20.60;;;;;;;1.55;100.00;101735.21;87294;278;137718;-69
2024/01/28 08:11:53;;;;;;;26.90;19.30;;;;;;;1.52;100.00;101741.89;87284;274;22570;-68
2024/01/28 08:13:55;;;;;;;28.50;19.20;;;;;;;1.44;100.00;101742.08;86968;272;135691;-71
2024/01/28 08:16:01;;;;;;;30.60;20.20;;;;;;;1.44;100.00;101751.48;87073;272;25223;-67
2024/01/28 08:18:04;;;;;;;29.40;18.50;;;;;;;1.55;100.00;101754.32;87365;269;23403;-68
2024/01/28 08:20:07;;;;;;;25.30;17.30;;;;;;;1.62;100.00;101761.28;87035;274;136827;-67
2024/01/28 08:22:10;;;;;;;28.00;20.50;;;;;;;1.60;100.00;101759.63;87330;267;22800;-71
2024/01/28 08:24:12;;;;;;;30.00;20.00;;;;;;;1.53;100.00;101763.55;87100;270;137306;-71
2024/01/28 08:26:15;;;;;;;31.30;20.00;;;;;;;1.49;100.00;101764.70;87106;267;25108;-69
2024/01/28 08:28:18;;;;;;;32.20;22.20;;;;;;;1.47;100.00;101765.67;87345;271;137697;-69
2024/01/28 08:30:22;;;;;;;31.40;20.80;;;;;;;1.48;100.00;101769.15;86988;271;22579;-69
2024/01/28 08:32:25;;;;;;;28.00;19.50;;;;;;;1.56;100.00;101766.02;87057;271;138177;-70
2024/01/28 08:34:27;;;;;;;29.50;20.60;;;;;;;1.62;100.00;101768.45;87403;274;25220;-70
2024/01/28 08:36:29;;;;;;;28.10;19.80;;;;;;;1.62;100.00;101766.54;87140;271;137247;-69
2024/01/28 08:38:32;;;;;;;30.50;20.50;;;;;;;1.59;100.00;101768.64;87188;271;25118;-69
2024/01/28 08:40:34;;;;;;;27.40;19.40;;;;;;;1.54;100.00;101770.51;87221;278;136548;-69
2024/01/28 08:42:35;;;;;;;26.50;17.60;;;;;;;1.47;100.00;101772.32;87151;278;24042;-70
2024/01/28 08:44:39;;;;;;;28.60;18.90;;;;;;;1.40;100.00;101774.89;87077;273;136811;-70
2024/01/28 08:46:41;;;;;;;30.60;19.70;;;;;;;1.43;100.00;101780.11;87195;273;22567;-72
2024/01/28 08:48:43;;;;;;;27.90;19.70;;;;;;;1.49;100.00;101778.54;87101;270;137520;-71
2024/01/28 08:50:46;;;;;;;28.30;19.40;;;;;;;1.54;100.00;101782.06;87166;278;25123;-70
2024/01/28 08:52:47;;;;;;;30.90;19.90;;;;;;;1.54;100.00;101783.84;87078;271;136607;-68
2024/01/28 08:54:49;;;;;;;28.10;19.30;;;;;;;1.51;100.00;101784.84;86989;268;24254;-70
2024/01/28 08:56:51;;;;;;;30.10;20.00;;;;;;;1.46;100.00;101787.08;87272;266;136546;-69
2024/01/28 08:58:53;;;;;;;33.00;21.10;;;;;;;1.40;100.00;101787.49;87134;267;22598;-70
2024/01/28 09:00:55;;;;;;;30.60;19.20;;;;;;;1.44;100.00;101786.73;87123;271;136626;-69
2024/01/28 09:02:57;;;;;;;23.80;14.40;;;;;;;1.50;100.00;101788.42;87120;271;22563;-70
2024/01/28 09:04:59;;;;;;;30.20;21.60;;;;;;;1.52;100.00;101787.98;87123;270;136917;-71
2024/01/28 09:07:01;;;;;;;33.80;19.20;;;;;;;1.50;100.00;101792.81;87308;271;24526;-69
2024/01/28 09:09:07;;;;;;;28.60;19.20;;;;;;;1.42;100.00;101790.17;87182;267;136734;-69
2024/01/28 09:11:10;;;;;;;30.40;19.50;;;;;;;1.34;100.00;101787.83;87288;275;22581;-69
2024/01/28 09:13:12;;;;;;;31.80;21.00;;;;;;;1.32;100.00;101789.89;86630;267;559717;-70
2024/01/28 09:15:13;;;;;;;33.90;19.90;;;;;;;1.38;100.00;101789.54;87047;273;25109;-70
2024/01/28 09:17:17;;;;;;;27.80;19.30;;;;;;;1.51;100.00;101789.46;88917;267;137119;-67
2024/01/28 09:19:21;;;;;;;24.80;17.50;;;;;;;1.61;100.00;101790.58;88358;271;24607;-70
2024/01/28 09:21:22;;;;;;;27.20;18.70;;;;;;;1.63;100.00;101795.70;87155;266;137677;-69